Terminal Aerodrome Forecast
Issued by NWS

Home | Current Version | Previous Version | Text Only | Print | Product List | Glossary On
Versions: 1 2 3 4 5 6 7 8 9 10 11 12 13 14 15 16 17 18 19 20 21 22 23
000
FTUS43 KILX 301725
TAFDEC
TAF
KDEC 301725Z 3018/0118 01010KT P6SM -SHRA OVC025
     FM301900 36010KT P6SM -SHRA OVC035
     FM010300 01006KT P6SM VCSH BKN015
     FM010600 33004KT 5SM BR VCSH SCT003 OVC008
     FM010800 32004KT 3SM -DZ BR OVC003
     FM011600 30005KT P6SM OVC012=

USA.gov is the U.S. government's official web portal to all federal, state and local government web resources and services.